sensor_id;sensor_type;location;lat;lon;timestamp;temperature;humidity
59855;DHT22;45732;52.850;6.896;2023-07-28T00:00:10;18.00;99.90
59855;DHT22;45732;52.850;6.896;2023-07-28T00:02:36;18.00;99.90
59855;DHT22;45732;52.850;6.896;2023-07-28T00:05:01;18.00;99.90
59855;DHT22;45732;52.850;6.896;2023-07-28T00:07:27;17.90;99.90
59855;DHT22;45732;52.850;6.896;2023-07-28T00:09:53;18.00;99.90
59855;DHT22;45732;52.850;6.896;2023-07-28T00:12:18;18.00;99.90
59855;DHT22;45732;52.850;6.896;2023-07-28T00:14:44;18.00;99.90
59855;DHT22;45732;52.850;6.896;2023-07-28T00:17:10;17.90;99.90
59855;DHT22;45732;52.850;6.896;2023-07-28T00:19:36;18.00;99.90
59855;DHT22;45732;52.850;6.896;2023-07-28T00:22:01;17.90;99.90
59855;DHT22;45732;52.850;6.896;2023-07-28T00:24:27;18.00;99.90
59855;DHT22;45732;52.850;6.896;2023-07-28T00:26:53;17.90;99.90
59855;DHT22;45732;52.850;6.896;2023-07-28T00:29:19;18.00;99.90
59855;DHT22;45732;52.850;6.896;2023-07-28T00:31:45;17.90;99.90
59855;DHT22;45732;52.850;6.896;2023-07-28T00:34:11;17.90;99.90
59855;DHT22;45732;52.850;6.896;2023-07-28T00:36:36;17.90;99.90
59855;DHT22;45732;52.850;6.896;2023-07-28T00:39:02;18.00;99.90
59855;DHT22;45732;52.850;6.896;2023-07-28T00:41:28;18.00;99.90
59855;DHT22;45732;52.850;6.896;2023-07-28T00:43:54;18.00;99.90
59855;DHT22;45732;52.850;6.896;2023-07-28T00:46:19;17.90;99.90
59855;DHT22;45732;52.850;6.896;2023-07-28T00:48:45;17.90;99.90
59855;DHT22;45732;52.850;6.896;2023-07-28T00:51:11;17.90;99.90
59855;DHT22;45732;52.850;6.896;2023-07-28T00:53:37;17.90;99.90
59855;DHT22;45732;52.850;6.896;2023-07-28T00:56:03;17.80;99.90
59855;DHT22;45732;52.850;6.896;2023-07-28T00:58:30;18.00;99.90
59855;DHT22;45732;52.850;6.896;2023-07-28T01:00:56;17.80;99.90
59855;DHT22;45732;52.850;6.896;2023-07-28T01:03:22;17.90;99.90
59855;DHT22;45732;52.850;6.896;2023-07-28T01:08:34;17.90;99.90
59855;DHT22;45732;52.850;6.896;2023-07-28T01:11:03;17.90;99.90
59855;DHT22;45732;52.850;6.896;2023-07-28T01:13:28;17.90;99.90
59855;DHT22;45732;52.850;6.896;2023-07-28T01:15:54;17.90;99.90
59855;DHT22;45732;52.850;6.896;2023-07-28T01:18:20;18.00;99.90
59855;DHT22;45732;52.850;6.896;2023-07-28T01:20:46;17.90;99.90
59855;DHT22;45732;52.850;6.896;2023-07-28T01:23:19;17.90;99.90
59855;DHT22;45732;52.850;6.896;2023-07-28T01:26:10;17.90;99.90
59855;DHT22;45732;52.850;6.896;2023-07-28T01:28:37;17.90;99.90
59855;DHT22;45732;52.850;6.896;2023-07-28T01:31:03;17.80;99.90
59855;DHT22;45732;52.850;6.896;2023-07-28T01:33:30;17.90;99.90
59855;DHT22;45732;52.850;6.896;2023-07-28T01:35:55;17.80;99.90
59855;DHT22;45732;52.850;6.896;2023-07-28T01:38:21;17.90;99.90
59855;DHT22;45732;52.850;6.896;2023-07-28T01:40:47;17.90;99.90
59855;DHT22;45732;52.850;6.896;2023-07-28T01:43:13;17.90;99.90
59855;DHT22;45732;52.850;6.896;2023-07-28T01:45:39;17.90;99.90
59855;DHT22;45732;52.850;6.896;2023-07-28T01:48:05;17.90;99.90
59855;DHT22;45732;52.850;6.896;2023-07-28T01:50:31;17.90;99.90
59855;DHT22;45732;52.850;6.896;2023-07-28T01:52:57;17.80;99.90
59855;DHT22;45732;52.850;6.896;2023-07-28T01:55:22;17.90;99.90
59855;DHT22;45732;52.850;6.896;2023-07-28T01:57:56;17.90;99.90
59855;DHT22;45732;52.850;6.896;2023-07-28T02:00:22;17.90;99.90
59855;DHT22;45732;52.850;6.896;2023-07-28T02:02:49;17.90;99.90
59855;DHT22;45732;52.850;6.896;2023-07-28T02:05:15;17.90;99.90
59855;DHT22;45732;52.850;6.896;2023-07-28T02:07:41;17.80;99.90
59855;DHT22;45732;52.850;6.896;2023-07-28T02:10:07;17.80;99.90
59855;DHT22;45732;52.850;6.896;2023-07-28T02:12:33;17.90;99.90
59855;DHT22;45732;52.850;6.896;2023-07-28T02:14:59;17.90;99.90
59855;DHT22;45732;52.850;6.896;2023-07-28T02:17:25;17.90;99.90
59855;DHT22;45732;52.850;6.896;2023-07-28T02:19:51;17.90;99.90
59855;DHT22;45732;52.850;6.896;2023-07-28T02:22:17;17.90;99.90
59855;DHT22;45732;52.850;6.896;2023-07-28T02:24:42;17.90;99.90
59855;DHT22;45732;52.850;6.896;2023-07-28T02:27:08;17.80;99.90
59855;DHT22;45732;52.850;6.896;2023-07-28T02:29:34;17.90;99.90
59855;DHT22;45732;52.850;6.896;2023-07-28T02:31:59;17.80;99.90
59855;DHT22;45732;52.850;6.896;2023-07-28T02:34:25;17.80;99.90
59855;DHT22;45732;52.850;6.896;2023-07-28T02:36:51;17.90;99.90
59855;DHT22;45732;52.850;6.896;2023-07-28T02:39:17;17.90;99.90
59855;DHT22;45732;52.850;6.896;2023-07-28T02:41:43;17.80;99.90
59855;DHT22;45732;52.850;6.896;2023-07-28T02:44:09;17.90;99.90
59855;DHT22;45732;52.850;6.896;2023-07-28T02:46:34;17.80;99.90
59855;DHT22;45732;52.850;6.896;2023-07-28T02:49:00;17.80;99.90
59855;DHT22;45732;52.850;6.896;2023-07-28T02:51:28;17.80;99.90
59855;DHT22;45732;52.850;6.896;2023-07-28T02:53:54;17.90;99.90
59855;DHT22;45732;52.850;6.896;2023-07-28T02:56:19;17.80;99.90
59855;DHT22;45732;52.850;6.896;2023-07-28T02:58:46;17.90;99.90
59855;DHT22;45732;52.850;6.896;2023-07-28T03:01:11;17.90;99.90
59855;DHT22;45732;52.850;6.896;2023-07-28T03:03:37;17.90;99.90
59855;DHT22;45732;52.850;6.896;2023-07-28T03:06:03;17.80;99.90
59855;DHT22;45732;52.850;6.896;2023-07-28T03:08:29;17.80;99.90
59855;DHT22;45732;52.850;6.896;2023-07-28T03:10:58;17.90;99.90
59855;DHT22;45732;52.850;6.896;2023-07-28T03:13:24;17.90;99.90
59855;DHT22;45732;52.850;6.896;2023-07-28T03:15:50;17.90;99.90
59855;DHT22;45732;52.850;6.896;2023-07-28T03:18:15;17.90;99.90
59855;DHT22;45732;52.850;6.896;2023-07-28T03:20:41;17.80;99.90
59855;DHT22;45732;52.850;6.896;2023-07-28T03:23:07;17.80;99.90
59855;DHT22;45732;52.850;6.896;2023-07-28T03:25:32;17.90;99.90
59855;DHT22;45732;52.850;6.896;2023-07-28T03:27:58;17.80;99.90
59855;DHT22;45732;52.850;6.896;2023-07-28T03:30:24;17.90;99.90
59855;DHT22;45732;52.850;6.896;2023-07-28T03:32:50;17.90;99.90
59855;DHT22;45732;52.850;6.896;2023-07-28T03:35:16;17.90;99.90
59855;DHT22;45732;52.850;6.896;2023-07-28T03:37:42;17.90;99.90
59855;DHT22;45732;52.850;6.896;2023-07-28T03:40:07;17.90;99.90
59855;DHT22;45732;52.850;6.896;2023-07-28T03:42:33;17.90;99.90
59855;DHT22;45732;52.850;6.896;2023-07-28T03:44:59;17.90;99.90
59855;DHT22;45732;52.850;6.896;2023-07-28T03:47:25;17.90;99.90
59855;DHT22;45732;52.850;6.896;2023-07-28T03:49:51;17.90;99.90
59855;DHT22;45732;52.850;6.896;2023-07-28T03:52:16;17.90;99.90
59855;DHT22;45732;52.850;6.896;2023-07-28T03:54:42;17.90;99.90
59855;DHT22;45732;52.850;6.896;2023-07-28T03:57:09;17.90;99.90
59855;DHT22;45732;52.850;6.896;2023-07-28T03:59:35;17.90;99.90
59855;DHT22;45732;52.850;6.896;2023-07-28T04:02:01;17.90;99.90
59855;DHT22;45732;52.850;6.896;2023-07-28T04:04:27;17.80;99.90
59855;DHT22;45732;52.850;6.896;2023-07-28T04:06:52;17.90;99.90
59855;DHT22;45732;52.850;6.896;2023-07-28T04:09:19;17.90;99.90
59855;DHT22;45732;52.850;6.896;2023-07-28T04:11:45;17.90;99.90
59855;DHT22;45732;52.850;6.896;2023-07-28T04:14:12;17.90;99.90
59855;DHT22;45732;52.850;6.896;2023-07-28T04:16:38;17.90;99.90
59855;DHT22;45732;52.850;6.896;2023-07-28T04:19:04;17.90;99.90
59855;DHT22;45732;52.850;6.896;2023-07-28T04:21:29;18.00;99.90
59855;DHT22;45732;52.850;6.896;2023-07-28T04:23:55;17.90;99.90
59855;DHT22;45732;52.850;6.896;2023-07-28T04:26:23;17.90;99.90
59855;DHT22;45732;52.850;6.896;2023-07-28T04:28:49;18.00;99.90
59855;DHT22;45732;52.850;6.896;2023-07-28T04:31:15;17.90;99.90
59855;DHT22;45732;52.850;6.896;2023-07-28T04:33:41;17.90;99.90
59855;DHT22;45732;52.850;6.896;2023-07-28T04:36:07;17.90;99.90
59855;DHT22;45732;52.850;6.896;2023-07-28T04:38:33;18.00;99.90
59855;DHT22;45732;52.850;6.896;2023-07-28T04:40:59;17.90;99.90
59855;DHT22;45732;52.850;6.896;2023-07-28T04:43:24;17.90;99.90
59855;DHT22;45732;52.850;6.896;2023-07-28T04:45:50;18.00;99.90
59855;DHT22;45732;52.850;6.896;2023-07-28T04:48:16;18.00;99.90
59855;DHT22;45732;52.850;6.896;2023-07-28T04:50:41;17.90;99.90
59855;DHT22;45732;52.850;6.896;2023-07-28T04:53:07;18.00;99.90
59855;DHT22;45732;52.850;6.896;2023-07-28T04:55:33;17.90;99.90
59855;DHT22;45732;52.850;6.896;2023-07-28T04:57:58;17.90;99.90
59855;DHT22;45732;52.850;6.896;2023-07-28T05:00:24;18.00;99.90
59855;DHT22;45732;52.850;6.896;2023-07-28T05:02:50;18.00;99.90
59855;DHT22;45732;52.850;6.896;2023-07-28T05:05:17;18.00;99.90
59855;DHT22;45732;52.850;6.896;2023-07-28T05:07:43;17.90;99.90
59855;DHT22;45732;52.850;6.896;2023-07-28T05:10:09;17.90;99.90
59855;DHT22;45732;52.850;6.896;2023-07-28T05:12:34;18.00;99.90
59855;DHT22;45732;52.850;6.896;2023-07-28T05:15:00;18.00;99.90
59855;DHT22;45732;52.850;6.896;2023-07-28T05:17:26;18.00;99.90
59855;DHT22;45732;52.850;6.896;2023-07-28T05:19:52;18.00;99.90
59855;DHT22;45732;52.850;6.896;2023-07-28T05:22:17;18.00;99.90
59855;DHT22;45732;52.850;6.896;2023-07-28T05:24:44;18.00;99.90
59855;DHT22;45732;52.850;6.896;2023-07-28T05:27:11;18.00;99.90
59855;DHT22;45732;52.850;6.896;2023-07-28T05:29:36;18.00;99.90
59855;DHT22;45732;52.850;6.896;2023-07-28T05:32:02;18.00;99.90
59855;DHT22;45732;52.850;6.896;2023-07-28T05:34:29;18.10;99.90
59855;DHT22;45732;52.850;6.896;2023-07-28T05:36:55;18.00;99.90
59855;DHT22;45732;52.850;6.896;2023-07-28T05:39:21;18.10;99.90
59855;DHT22;45732;52.850;6.896;2023-07-28T05:41:47;18.00;99.90
59855;DHT22;45732;52.850;6.896;2023-07-28T05:44:13;18.00;99.90
59855;DHT22;45732;52.850;6.896;2023-07-28T05:46:39;18.00;99.90
59855;DHT22;45732;52.850;6.896;2023-07-28T05:49:05;18.00;99.90
59855;DHT22;45732;52.850;6.896;2023-07-28T05:51:31;18.10;99.90
59855;DHT22;45732;52.850;6.896;2023-07-28T05:53:57;18.10;99.90
59855;DHT22;45732;52.850;6.896;2023-07-28T05:56:23;18.10;99.90
59855;DHT22;45732;52.850;6.896;2023-07-28T05:58:49;18.20;99.90
59855;DHT22;45732;52.850;6.896;2023-07-28T06:01:15;18.20;99.90
59855;DHT22;45732;52.850;6.896;2023-07-28T06:06:07;18.20;99.90
59855;DHT22;45732;52.850;6.896;2023-07-28T06:08:34;18.30;99.90
59855;DHT22;45732;52.850;6.896;2023-07-28T06:11:02;18.30;99.90
59855;DHT22;45732;52.850;6.896;2023-07-28T06:13:28;18.30;99.90
59855;DHT22;45732;52.850;6.896;2023-07-28T06:15:54;18.40;99.90
59855;DHT22;45732;52.850;6.896;2023-07-28T06:18:20;18.30;99.90
59855;DHT22;45732;52.850;6.896;2023-07-28T06:20:47;18.40;99.90
59855;DHT22;45732;52.850;6.896;2023-07-28T06:23:13;18.40;99.90
59855;DHT22;45732;52.850;6.896;2023-07-28T06:25:39;18.40;99.90
59855;DHT22;45732;52.850;6.896;2023-07-28T06:28:10;18.40;99.90
59855;DHT22;45732;52.850;6.896;2023-07-28T06:30:36;18.50;99.90
59855;DHT22;45732;52.850;6.896;2023-07-28T06:33:03;18.40;99.90
59855;DHT22;45732;52.850;6.896;2023-07-28T06:35:29;18.50;99.90
59855;DHT22;45732;52.850;6.896;2023-07-28T06:37:54;18.50;99.90
59855;DHT22;45732;52.850;6.896;2023-07-28T06:40:20;18.40;99.90
59855;DHT22;45732;52.850;6.896;2023-07-28T06:42:46;18.40;99.90
59855;DHT22;45732;52.850;6.896;2023-07-28T06:45:12;18.40;99.90
59855;DHT22;45732;52.850;6.896;2023-07-28T06:47:38;18.50;99.90
59855;DHT22;45732;52.850;6.896;2023-07-28T06:50:04;18.50;99.90
59855;DHT22;45732;52.850;6.896;2023-07-28T06:52:31;18.60;99.90
59855;DHT22;45732;52.850;6.896;2023-07-28T06:54:57;18.50;99.90
59855;DHT22;45732;52.850;6.896;2023-07-28T06:57:22;18.60;99.90
59855;DHT22;45732;52.850;6.896;2023-07-28T06:59:49;18.70;99.90
59855;DHT22;45732;52.850;6.896;2023-07-28T07:02:15;18.60;99.90
59855;DHT22;45732;52.850;6.896;2023-07-28T07:04:41;18.70;99.90
59855;DHT22;45732;52.850;6.896;2023-07-28T07:07:07;18.70;99.90
59855;DHT22;45732;52.850;6.896;2023-07-28T07:09:33;18.70;99.90
59855;DHT22;45732;52.850;6.896;2023-07-28T07:11:58;18.70;99.90
59855;DHT22;45732;52.850;6.896;2023-07-28T07:14:24;18.80;99.90
59855;DHT22;45732;52.850;6.896;2023-07-28T07:16:50;18.80;99.90
59855;DHT22;45732;52.850;6.896;2023-07-28T07:19:16;18.90;99.90
59855;DHT22;45732;52.850;6.896;2023-07-28T07:21:41;18.90;99.90
59855;DHT22;45732;52.850;6.896;2023-07-28T07:24:10;18.90;99.90
59855;DHT22;45732;52.850;6.896;2023-07-28T07:26:35;19.00;99.90
59855;DHT22;45732;52.850;6.896;2023-07-28T07:29:01;19.00;99.90
59855;DHT22;45732;52.850;6.896;2023-07-28T07:31:27;19.10;99.90
59855;DHT22;45732;52.850;6.896;2023-07-28T07:33:52;19.10;99.90
59855;DHT22;45732;52.850;6.896;2023-07-28T07:36:19;19.30;99.90
59855;DHT22;45732;52.850;6.896;2023-07-28T07:38:45;19.20;99.90
59855;DHT22;45732;52.850;6.896;2023-07-28T07:41:12;19.30;99.90
59855;DHT22;45732;52.850;6.896;2023-07-28T07:43:39;19.30;99.90
59855;DHT22;45732;52.850;6.896;2023-07-28T07:46:05;19.40;99.90
59855;DHT22;45732;52.850;6.896;2023-07-28T07:48:30;19.40;99.90
59855;DHT22;45732;52.850;6.896;2023-07-28T07:50:56;19.40;99.90
59855;DHT22;45732;52.850;6.896;2023-07-28T07:53:22;19.40;99.90
59855;DHT22;45732;52.850;6.896;2023-07-28T07:55:48;19.50;99.90
59855;DHT22;45732;52.850;6.896;2023-07-28T07:58:14;19.60;99.90
59855;DHT22;45732;52.850;6.896;2023-07-28T08:00:40;19.60;99.90
59855;DHT22;45732;52.850;6.896;2023-07-28T08:03:06;19.60;99.90
59855;DHT22;45732;52.850;6.896;2023-07-28T08:05:32;19.70;99.90
59855;DHT22;45732;52.850;6.896;2023-07-28T08:07:58;19.80;99.90
59855;DHT22;45732;52.850;6.896;2023-07-28T08:10:23;19.80;99.90
59855;DHT22;45732;52.850;6.896;2023-07-28T08:12:49;19.80;99.90
59855;DHT22;45732;52.850;6.896;2023-07-28T08:15:15;19.90;99.90
59855;DHT22;45732;52.850;6.896;2023-07-28T08:17:41;19.90;99.90
59855;DHT22;45732;52.850;6.896;2023-07-28T08:20:07;19.90;99.90
59855;DHT22;45732;52.850;6.896;2023-07-28T08:22:33;19.80;99.90
59855;DHT22;45732;52.850;6.896;2023-07-28T08:24:59;19.70;99.90
59855;DHT22;45732;52.850;6.896;2023-07-28T08:27:25;19.80;99.90
59855;DHT22;45732;52.850;6.896;2023-07-28T08:29:51;19.80;99.90
59855;DHT22;45732;52.850;6.896;2023-07-28T08:32:16;19.70;99.90
59855;DHT22;45732;52.850;6.896;2023-07-28T08:34:42;19.70;99.90
59855;DHT22;45732;52.850;6.896;2023-07-28T08:37:08;19.70;99.90
59855;DHT22;45732;52.850;6.896;2023-07-28T08:39:34;19.80;99.90
59855;DHT22;45732;52.850;6.896;2023-07-28T08:42:01;19.90;99.90
59855;DHT22;45732;52.850;6.896;2023-07-28T08:44:31;20.00;99.90
59855;DHT22;45732;52.850;6.896;2023-07-28T08:46:57;20.10;99.90
59855;DHT22;45732;52.850;6.896;2023-07-28T08:49:23;20.20;99.90
59855;DHT22;45732;52.850;6.896;2023-07-28T08:51:50;20.20;99.90
59855;DHT22;45732;52.850;6.896;2023-07-28T08:54:16;20.10;99.90
59855;DHT22;45732;52.850;6.896;2023-07-28T08:56:43;20.10;99.90
59855;DHT22;45732;52.850;6.896;2023-07-28T08:59:09;20.10;99.90
59855;DHT22;45732;52.850;6.896;2023-07-28T09:01:41;20.20;99.90
59855;DHT22;45732;52.850;6.896;2023-07-28T09:04:11;20.30;99.90
59855;DHT22;45732;52.850;6.896;2023-07-28T09:06:37;20.40;99.90
59855;DHT22;45732;52.850;6.896;2023-07-28T09:09:07;20.40;99.90
59855;DHT22;45732;52.850;6.896;2023-07-28T09:11:33;20.60;99.90
59855;DHT22;45732;52.850;6.896;2023-07-28T09:14:00;20.60;99.90
59855;DHT22;45732;52.850;6.896;2023-07-28T09:16:26;20.70;99.90
59855;DHT22;45732;52.850;6.896;2023-07-28T09:19:07;20.60;99.90
59855;DHT22;45732;52.850;6.896;2023-07-28T09:21:33;20.70;99.90
59855;DHT22;45732;52.850;6.896;2023-07-28T09:24:09;20.70;99.90
59855;DHT22;45732;52.850;6.896;2023-07-28T09:29:19;20.70;99.90
59855;DHT22;45732;52.850;6.896;2023-07-28T09:31:46;20.70;99.90
59855;DHT22;45732;52.850;6.896;2023-07-28T09:34:22;20.90;99.90
59855;DHT22;45732;52.850;6.896;2023-07-28T09:36:49;21.10;99.90
59855;DHT22;45732;52.850;6.896;2023-07-28T09:39:15;21.20;99.90
59855;DHT22;45732;52.850;6.896;2023-07-28T09:41:42;21.20;99.90
59855;DHT22;45732;52.850;6.896;2023-07-28T09:44:09;21.30;99.90
59855;DHT22;45732;52.850;6.896;2023-07-28T09:46:35;21.40;99.90
59855;DHT22;45732;52.850;6.896;2023-07-28T09:49:05;21.50;99.90
59855;DHT22;45732;52.850;6.896;2023-07-28T09:51:34;21.60;99.90
59855;DHT22;45732;52.850;6.896;2023-07-28T09:54:07;21.50;99.90
59855;DHT22;45732;52.850;6.896;2023-07-28T09:56:37;21.50;99.90
59855;DHT22;45732;52.850;6.896;2023-07-28T09:59:07;21.60;99.90
59855;DHT22;45732;52.850;6.896;2023-07-28T10:01:34;21.60;99.90
59855;DHT22;45732;52.850;6.896;2023-07-28T10:04:01;21.70;99.90
59855;DHT22;45732;52.850;6.896;2023-07-28T10:06:27;21.80;99.90
59855;DHT22;45732;52.850;6.896;2023-07-28T10:08:53;21.90;99.90
59855;DHT22;45732;52.850;6.896;2023-07-28T10:11:20;21.80;99.90
59855;DHT22;45732;52.850;6.896;2023-07-28T10:13:46;21.70;99.90
59855;DHT22;45732;52.850;6.896;2023-07-28T10:16:13;21.60;99.90
59855;DHT22;45732;52.850;6.896;2023-07-28T10:18:53;21.60;99.90
59855;DHT22;45732;52.850;6.896;2023-07-28T10:21:19;21.70;99.90
59855;DHT22;45732;52.850;6.896;2023-07-28T10:23:45;21.70;99.90
59855;DHT22;45732;52.850;6.896;2023-07-28T10:26:31;21.70;99.90
59855;DHT22;45732;52.850;6.896;2023-07-28T10:29:14;21.80;99.90
59855;DHT22;45732;52.850;6.896;2023-07-28T10:31:50;21.80;99.90
59855;DHT22;45732;52.850;6.896;2023-07-28T10:34:17;21.90;99.90
59855;DHT22;45732;52.850;6.896;2023-07-28T10:36:44;21.90;99.90
59855;DHT22;45732;52.850;6.896;2023-07-28T10:39:16;21.80;99.90
59855;DHT22;45732;52.850;6.896;2023-07-28T10:42:09;21.90;99.90
59855;DHT22;45732;52.850;6.896;2023-07-28T10:44:36;22.10;99.90
59855;DHT22;45732;52.850;6.896;2023-07-28T10:47:02;22.10;99.90
59855;DHT22;45732;52.850;6.896;2023-07-28T10:49:28;22.20;99.90
59855;DHT22;45732;52.850;6.896;2023-07-28T10:51:54;22.00;99.90
59855;DHT22;45732;52.850;6.896;2023-07-28T10:54:20;22.00;99.90
59855;DHT22;45732;52.850;6.896;2023-07-28T10:56:47;22.00;99.90
59855;DHT22;45732;52.850;6.896;2023-07-28T10:59:14;22.10;99.90
59855;DHT22;45732;52.850;6.896;2023-07-28T11:01:41;22.30;99.90
59855;DHT22;45732;52.850;6.896;2023-07-28T11:04:12;22.50;99.90
59855;DHT22;45732;52.850;6.896;2023-07-28T11:06:44;22.50;99.90
59855;DHT22;45732;52.850;6.896;2023-07-28T11:09:11;22.40;99.90
59855;DHT22;45732;52.850;6.896;2023-07-28T11:11:38;22.20;99.90
59855;DHT22;45732;52.850;6.896;2023-07-28T11:14:05;22.10;99.90
59855;DHT22;45732;52.850;6.896;2023-07-28T11:16:36;22.00;99.90
59855;DHT22;45732;52.850;6.896;2023-07-28T11:19:04;22.10;99.90
59855;DHT22;45732;52.850;6.896;2023-07-28T11:21:39;22.20;99.90
59855;DHT22;45732;52.850;6.896;2023-07-28T11:24:09;22.20;99.90
59855;DHT22;45732;52.850;6.896;2023-07-28T11:26:39;22.20;99.90
59855;DHT22;45732;52.850;6.896;2023-07-28T11:29:05;22.00;99.90
59855;DHT22;45732;52.850;6.896;2023-07-28T11:31:31;21.90;99.90
59855;DHT22;45732;52.850;6.896;2023-07-28T11:33:58;21.80;99.90
59855;DHT22;45732;52.850;6.896;2023-07-28T11:36:29;21.70;99.90
59855;DHT22;45732;52.850;6.896;2023-07-28T11:38:58;21.70;99.90
59855;DHT22;45732;52.850;6.896;2023-07-28T11:41:24;21.60;99.90
59855;DHT22;45732;52.850;6.896;2023-07-28T11:43:51;21.50;99.90
59855;DHT22;45732;52.850;6.896;2023-07-28T11:49:16;21.50;99.90
59855;DHT22;45732;52.850;6.896;2023-07-28T11:51:46;21.50;99.90
59855;DHT22;45732;52.850;6.896;2023-07-28T11:54:14;21.60;99.90
59855;DHT22;45732;52.850;6.896;2023-07-28T11:56:43;21.80;99.90
59855;DHT22;45732;52.850;6.896;2023-07-28T11:59:10;22.00;99.90
59855;DHT22;45732;52.850;6.896;2023-07-28T12:01:55;22.00;99.90
59855;DHT22;45732;52.850;6.896;2023-07-28T12:04:28;22.00;99.90
59855;DHT22;45732;52.850;6.896;2023-07-28T12:09:27;22.00;99.90
59855;DHT22;45732;52.850;6.896;2023-07-28T12:11:52;22.10;99.90
59855;DHT22;45732;52.850;6.896;2023-07-28T12:14:31;22.20;99.90
59855;DHT22;45732;52.850;6.896;2023-07-28T12:16:57;22.30;99.90
59855;DHT22;45732;52.850;6.896;2023-07-28T12:19:22;22.50;99.90
59855;DHT22;45732;52.850;6.896;2023-07-28T12:21:48;22.60;99.90
59855;DHT22;45732;52.850;6.896;2023-07-28T12:24:14;22.70;99.90
59855;DHT22;45732;52.850;6.896;2023-07-28T12:26:40;22.80;99.90
59855;DHT22;45732;52.850;6.896;2023-07-28T12:29:06;23.00;99.90
59855;DHT22;45732;52.850;6.896;2023-07-28T12:31:31;23.00;99.90
59855;DHT22;45732;52.850;6.896;2023-07-28T12:33:58;23.00;99.90
59855;DHT22;45732;52.850;6.896;2023-07-28T12:36:24;23.00;99.90
59855;DHT22;45732;52.850;6.896;2023-07-28T12:38:49;23.10;99.90
59855;DHT22;45732;52.850;6.896;2023-07-28T12:41:15;23.20;99.90
59855;DHT22;45732;52.850;6.896;2023-07-28T12:43:41;23.30;99.90
59855;DHT22;45732;52.850;6.896;2023-07-28T12:46:06;23.50;99.90
59855;DHT22;45732;52.850;6.896;2023-07-28T12:48:32;23.50;99.90
59855;DHT22;45732;52.850;6.896;2023-07-28T12:50:58;23.50;99.90
59855;DHT22;45732;52.850;6.896;2023-07-28T12:53:24;23.50;99.90
59855;DHT22;45732;52.850;6.896;2023-07-28T12:55:49;23.40;99.90
59855;DHT22;45732;52.850;6.896;2023-07-28T12:58:15;23.30;99.90
59855;DHT22;45732;52.850;6.896;2023-07-28T13:00:41;23.20;99.90
59855;DHT22;45732;52.850;6.896;2023-07-28T13:03:07;23.10;99.90
59855;DHT22;45732;52.850;6.896;2023-07-28T13:05:33;23.20;99.90
59855;DHT22;45732;52.850;6.896;2023-07-28T13:07:59;23.10;99.90
59855;DHT22;45732;52.850;6.896;2023-07-28T13:10:24;23.20;99.90
59855;DHT22;45732;52.850;6.896;2023-07-28T13:12:50;23.20;99.90
59855;DHT22;45732;52.850;6.896;2023-07-28T13:15:16;23.20;99.90
59855;DHT22;45732;52.850;6.896;2023-07-28T13:17:42;23.10;99.90
59855;DHT22;45732;52.850;6.896;2023-07-28T13:20:08;23.20;99.90
59855;DHT22;45732;52.850;6.896;2023-07-28T13:22:34;23.30;99.90
59855;DHT22;45732;52.850;6.896;2023-07-28T13:25:00;23.30;99.90
59855;DHT22;45732;52.850;6.896;2023-07-28T13:27:26;23.30;99.90
59855;DHT22;45732;52.850;6.896;2023-07-28T13:29:51;23.30;99.90
59855;DHT22;45732;52.850;6.896;2023-07-28T13:32:25;23.40;99.90
59855;DHT22;45732;52.850;6.896;2023-07-28T13:34:51;23.40;99.90
59855;DHT22;45732;52.850;6.896;2023-07-28T13:37:18;23.30;99.90
59855;DHT22;45732;52.850;6.896;2023-07-28T13:39:45;23.30;99.90
59855;DHT22;45732;52.850;6.896;2023-07-28T13:42:11;23.30;99.90
59855;DHT22;45732;52.850;6.896;2023-07-28T13:44:38;23.40;99.90
59855;DHT22;45732;52.850;6.896;2023-07-28T13:47:04;23.30;99.90
59855;DHT22;45732;52.850;6.896;2023-07-28T13:49:31;23.40;99.90
59855;DHT22;45732;52.850;6.896;2023-07-28T13:51:57;23.30;99.90
59855;DHT22;45732;52.850;6.896;2023-07-28T13:54:22;23.30;99.90
59855;DHT22;45732;52.850;6.896;2023-07-28T13:56:48;23.20;99.90
59855;DHT22;45732;52.850;6.896;2023-07-28T13:59:14;23.30;99.90
59855;DHT22;45732;52.850;6.896;2023-07-28T14:01:40;23.30;99.90
59855;DHT22;45732;52.850;6.896;2023-07-28T14:04:06;23.30;99.90
59855;DHT22;45732;52.850;6.896;2023-07-28T14:06:32;23.40;99.90
59855;DHT22;45732;52.850;6.896;2023-07-28T14:08:58;23.50;99.90
59855;DHT22;45732;52.850;6.896;2023-07-28T14:11:23;23.50;99.90
59855;DHT22;45732;52.850;6.896;2023-07-28T14:13:49;23.50;99.90
59855;DHT22;45732;52.850;6.896;2023-07-28T14:16:15;23.50;99.90
59855;DHT22;45732;52.850;6.896;2023-07-28T14:18:40;23.40;99.90
59855;DHT22;45732;52.850;6.896;2023-07-28T14:21:06;23.40;99.90
59855;DHT22;45732;52.850;6.896;2023-07-28T14:23:32;23.40;99.90
59855;DHT22;45732;52.850;6.896;2023-07-28T14:25:58;23.40;99.90
59855;DHT22;45732;52.850;6.896;2023-07-28T14:28:24;23.40;99.90
59855;DHT22;45732;52.850;6.896;2023-07-28T14:30:50;23.40;99.90
59855;DHT22;45732;52.850;6.896;2023-07-28T14:33:17;23.40;99.90
59855;DHT22;45732;52.850;6.896;2023-07-28T14:35:44;23.40;99.90
59855;DHT22;45732;52.850;6.896;2023-07-28T14:38:11;23.50;99.90
59855;DHT22;45732;52.850;6.896;2023-07-28T14:40:37;23.60;99.90
59855;DHT22;45732;52.850;6.896;2023-07-28T14:43:06;23.70;99.90
59855;DHT22;45732;52.850;6.896;2023-07-28T14:45:32;23.60;99.90
59855;DHT22;45732;52.850;6.896;2023-07-28T14:47:58;23.60;99.90
59855;DHT22;45732;52.850;6.896;2023-07-28T14:50:23;23.60;99.90
59855;DHT22;45732;52.850;6.896;2023-07-28T14:52:49;23.70;99.90
59855;DHT22;45732;52.850;6.896;2023-07-28T14:55:15;23.70;99.90
59855;DHT22;45732;52.850;6.896;2023-07-28T14:57:41;23.70;99.90
59855;DHT22;45732;52.850;6.896;2023-07-28T15:00:07;23.70;99.90
59855;DHT22;45732;52.850;6.896;2023-07-28T15:02:33;23.80;99.90
59855;DHT22;45732;52.850;6.896;2023-07-28T15:05:01;23.80;99.90
59855;DHT22;45732;52.850;6.896;2023-07-28T15:07:27;23.80;99.90
59855;DHT22;45732;52.850;6.896;2023-07-28T15:09:53;23.80;99.90
59855;DHT22;45732;52.850;6.896;2023-07-28T15:12:19;23.80;99.90
59855;DHT22;45732;52.850;6.896;2023-07-28T15:14:44;23.80;99.90
59855;DHT22;45732;52.850;6.896;2023-07-28T15:17:10;23.80;99.90
59855;DHT22;45732;52.850;6.896;2023-07-28T15:19:36;23.80;99.90
59855;DHT22;45732;52.850;6.896;2023-07-28T15:22:02;23.80;99.90
59855;DHT22;45732;52.850;6.896;2023-07-28T15:24:28;23.80;99.90
59855;DHT22;45732;52.850;6.896;2023-07-28T15:26:54;23.80;99.90
59855;DHT22;45732;52.850;6.896;2023-07-28T15:29:20;23.80;99.90
59855;DHT22;45732;52.850;6.896;2023-07-28T15:31:45;23.70;99.90
59855;DHT22;45732;52.850;6.896;2023-07-28T15:34:11;23.60;99.90
59855;DHT22;45732;52.850;6.896;2023-07-28T15:36:37;23.60;99.90
59855;DHT22;45732;52.850;6.896;2023-07-28T15:39:03;23.60;99.90